createdAt,value
2022-11-18T00:01:18.331Z,2.78
2022-11-18T00:03:45.766Z,2.50
2022-11-18T00:06:21.312Z,2.95
2022-11-18T00:08:49.097Z,2.55
2022-11-18T00:11:37.557Z,3.65
2022-11-18T00:14:22.391Z,2.42
2022-11-18T00:16:58.022Z,2.92
2022-11-18T00:19:42.911Z,3.38
2022-11-18T00:22:12.743Z,3.25
2022-11-18T00:24:39.749Z,2.70
2022-11-18T00:27:06.834Z,3.47
2022-11-18T00:29:33.808Z,3.15
2022-11-18T00:32:00.962Z,2.72
2022-11-18T00:34:28.364Z,3.05
2022-11-18T00:36:55.429Z,2.85
2022-11-18T00:39:22.952Z,3.00
2022-11-18T00:42:09.008Z,3.13
2022-11-18T00:44:36.882Z,2.78
2022-11-18T00:47:04.420Z,2.80
2022-11-18T00:49:31.574Z,2.33
2022-11-18T00:51:58.677Z,2.67
2022-11-18T00:54:25.726Z,2.63
2022-11-18T00:56:52.766Z,2.50
2022-11-18T00:59:20.243Z,2.30
2022-11-18T01:01:48.956Z,2.55
2022-11-18T01:04:16.602Z,2.53
2022-11-18T01:06:43.772Z,2.28
2022-11-18T01:09:10.842Z,2.97
2022-11-18T01:11:56.285Z,3.03
2022-11-18T01:14:26.667Z,2.60
2022-11-18T01:16:55.259Z,2.50
2022-11-18T01:19:22.727Z,2.47
2022-11-18T01:21:50.115Z,2.70
2022-11-18T01:24:17.501Z,2.47
2022-11-18T01:26:44.649Z,3.03
2022-11-18T01:29:11.629Z,2.83
2022-11-18T01:31:50.223Z,2.25
2022-11-18T01:34:28.968Z,2.47
2022-11-18T01:36:57.252Z,2.28
2022-11-18T01:39:24.798Z,2.75
2022-11-18T01:41:51.846Z,2.75
2022-11-18T01:44:58.084Z,3.20
2022-11-18T01:47:33.065Z,2.75
2022-11-18T01:50:00.995Z,2.35
2022-11-18T01:52:28.841Z,3.00
2022-11-18T01:55:03.828Z,2.97
2022-11-18T01:57:32.281Z,2.85
2022-11-18T02:00:03.825Z,2.50
2022-11-18T02:02:33.400Z,3.17
2022-11-18T02:05:02.449Z,2.90
2022-11-18T02:07:29.731Z,3.10
2022-11-18T02:09:59.843Z,2.72
2022-11-18T02:12:26.870Z,2.90
2022-11-18T02:14:54.213Z,2.65
2022-11-18T02:17:42.858Z,3.00
2022-11-18T02:20:23.976Z,2.78
2022-11-18T02:23:09.044Z,2.92
2022-11-18T02:25:44.737Z,3.08
2022-11-18T02:28:44.999Z,2.85
2022-11-18T02:31:30.839Z,3.08
2022-11-18T02:34:20.598Z,3.00
2022-11-18T02:37:12.477Z,3.55
2022-11-18T02:39:51.378Z,3.05
2022-11-18T02:42:19.305Z,3.55
2022-11-18T02:44:52.897Z,2.95
2022-11-18T02:47:22.157Z,3.45
2022-11-18T02:49:54.064Z,3.28
2022-11-18T02:52:23.087Z,3.28
2022-11-18T02:54:52.551Z,3.50
2022-11-18T02:57:20.952Z,3.33
2022-11-18T02:59:48.555Z,2.90
2022-11-18T03:02:17.803Z,3.63
2022-11-18T03:04:50.069Z,3.60
2022-11-18T03:07:34.568Z,3.15
2022-11-18T03:10:02.680Z,3.08
2022-11-18T03:12:52.192Z,3.30
2022-11-18T03:15:32.974Z,3.35
2022-11-18T03:18:05.671Z,3.38
2022-11-18T03:20:39.039Z,3.47
2022-11-18T03:23:08.125Z,3.80
2022-11-18T03:25:51.740Z,3.13
2022-11-18T03:28:21.350Z,3.88
2022-11-18T03:30:59.645Z,3.85
2022-11-18T03:33:35.182Z,3.17
2022-11-18T03:36:07.757Z,3.97
2022-11-18T03:38:39.759Z,3.45
2022-11-18T03:41:10.527Z,3.50
2022-11-18T03:43:43.764Z,4.13
2022-11-18T03:46:15.281Z,3.78
2022-11-18T03:48:48.930Z,3.67
2022-11-18T03:51:22.757Z,3.50
2022-11-18T03:56:30.186Z,4.00
2022-11-18T03:59:01.227Z,3.40
2022-11-18T04:02:01.650Z,3.42
2022-11-18T04:04:29.448Z,3.92
2022-11-18T04:07:05.841Z,4.05
2022-11-18T04:09:41.880Z,3.28
2022-11-18T04:12:13.345Z,4.10
2022-11-18T04:14:43.401Z,3.97
2022-11-18T04:17:16.545Z,3.90
2022-11-18T04:19:43.745Z,3.67
2022-11-18T04:22:11.972Z,3.10
2022-11-18T04:24:39.555Z,3.90
2022-11-18T04:27:07.778Z,3.97
2022-11-18T04:29:34.927Z,3.75
2022-11-18T04:32:03.001Z,3.95
2022-11-18T04:34:30.826Z,3.72
2022-11-18T04:36:58.532Z,3.70
2022-11-18T04:39:25.506Z,4.28
2022-11-18T04:41:55.599Z,3.83
2022-11-18T04:44:26.810Z,4.20
2022-11-18T04:46:55.379Z,4.32
2022-11-18T04:49:23.060Z,4.10
2022-11-18T04:51:51.064Z,3.90
2022-11-18T04:54:19.607Z,4.53
2022-11-18T04:56:49.383Z,4.40
2022-11-18T04:59:20.994Z,3.40
2022-11-18T05:01:49.641Z,4.30
2022-11-18T05:04:20.329Z,3.83
2022-11-18T05:06:48.304Z,4.43
2022-11-18T05:09:16.369Z,4.22
2022-11-18T05:12:17.347Z,3.47
2022-11-18T05:14:49.553Z,4.57
2022-11-18T05:17:18.448Z,3.45
2022-11-18T05:19:45.504Z,4.30
2022-11-18T05:22:12.542Z,3.90
2022-11-18T05:24:39.541Z,4.32
2022-11-18T05:27:06.606Z,3.72
2022-11-18T05:29:33.719Z,4.10
2022-11-18T05:32:00.755Z,3.97
2022-11-18T05:34:27.893Z,3.78
2022-11-18T05:36:54.904Z,4.45
2022-11-18T05:39:22.021Z,3.88
2022-11-18T05:42:07.771Z,4.20
2022-11-18T05:44:34.761Z,4.35
2022-11-18T05:47:01.802Z,3.60
2022-11-18T05:49:28.915Z,4.45
2022-11-18T05:51:55.967Z,4.05
2022-11-18T05:54:23.018Z,4.15
2022-11-18T05:56:50.542Z,4.32
2022-11-18T05:59:18.781Z,3.60
2022-11-18T06:01:51.713Z,4.05
2022-11-18T06:04:26.437Z,4.20
2022-11-18T06:06:59.485Z,4.60
2022-11-18T06:09:32.968Z,4.03
2022-11-18T06:12:02.150Z,4.07
2022-11-18T06:14:38.770Z,4.53
2022-11-18T06:17:12.185Z,3.80
2022-11-18T06:19:39.387Z,3.65
2022-11-18T06:22:07.775Z,3.95
2022-11-18T06:24:34.962Z,4.45
2022-11-18T06:27:02.954Z,4.03
2022-11-18T06:29:31.144Z,3.80
2022-11-18T06:31:58.200Z,4.63
2022-11-18T06:34:25.301Z,3.67
2022-11-18T06:36:52.365Z,4.22
2022-11-18T06:39:19.878Z,4.55
2022-11-18T06:41:47.426Z,4.43
2022-11-18T06:44:14.760Z,3.85
2022-11-18T06:46:57.130Z,4.00
2022-11-18T06:49:25.913Z,4.30
2022-11-18T06:51:53.043Z,3.67
2022-11-18T06:54:20.141Z,4.63
2022-11-18T06:56:48.261Z,4.72
2022-11-18T06:59:15.703Z,4.35
2022-11-18T07:01:42.928Z,4.15
2022-11-18T07:04:09.985Z,4.20
2022-11-18T07:06:37.366Z,4.88
2022-11-18T07:09:07.044Z,4.43
2022-11-18T07:11:34.753Z,4.55
2022-11-18T07:14:02.164Z,4.40
2022-11-18T07:16:29.307Z,4.05
2022-11-18T07:18:56.457Z,4.10
2022-11-18T07:21:28.596Z,4.72
2022-11-18T07:23:56.711Z,4.53
2022-11-18T07:26:24.000Z,3.80
2022-11-18T07:28:51.821Z,4.47
2022-11-18T07:31:20.554Z,4.35
2022-11-18T07:33:54.608Z,4.65
2022-11-18T07:36:23.953Z,3.92
2022-11-18T07:38:51.779Z,3.90
2022-11-18T07:41:21.905Z,4.13
2022-11-18T07:43:51.245Z,4.70
2022-11-18T07:46:30.533Z,4.07
2022-11-18T07:48:59.519Z,4.55
2022-11-18T07:51:32.155Z,4.07
2022-11-18T07:53:59.215Z,3.78
2022-11-18T07:56:26.710Z,4.55
2022-11-18T07:58:54.923Z,5.60
2022-11-18T08:01:24.229Z,4.40
2022-11-18T08:03:51.839Z,4.65
2022-11-18T08:06:20.202Z,4.57
2022-11-18T08:08:49.541Z,4.03
2022-11-18T08:11:22.612Z,5.43
2022-11-18T08:13:51.850Z,4.55
2022-11-18T08:16:21.838Z,5.30
2022-11-18T08:18:49.917Z,5.03
2022-11-18T08:21:20.017Z,6.10
2022-11-18T08:23:54.897Z,5.00
2022-11-18T08:26:22.865Z,4.82
2022-11-18T08:28:50.101Z,4.72
2022-11-18T08:31:21.139Z,4.63
2022-11-18T08:33:50.273Z,4.57
2022-11-18T08:36:21.340Z,5.40
2022-11-18T08:38:49.335Z,4.47
2022-11-18T08:41:23.111Z,5.25
2022-11-18T08:46:18.041Z,4.13
2022-11-18T08:48:45.256Z,4.35
2022-11-18T08:51:13.560Z,4.70
2022-11-18T08:53:40.550Z,4.45
2022-11-18T08:56:12.658Z,4.35
2022-11-18T08:58:39.693Z,5.13
2022-11-18T09:01:08.185Z,3.95
2022-11-18T09:03:35.614Z,4.43
2022-11-18T09:06:10.561Z,5.28
2022-11-18T09:08:38.423Z,4.15
2022-11-18T09:11:14.629Z,4.60
2022-11-18T09:16:31.731Z,4.28
2022-11-18T09:19:08.539Z,4.38
2022-11-18T09:21:45.478Z,4.00
2022-11-18T09:24:12.627Z,4.78
2022-11-18T09:26:39.696Z,4.55
2022-11-18T09:29:07.021Z,4.53
2022-11-18T09:31:34.291Z,4.60
2022-11-18T09:34:01.540Z,4.35
2022-11-18T09:36:28.760Z,4.13
2022-11-18T09:38:55.806Z,3.90
2022-11-18T09:41:37.816Z,4.55
2022-11-18T09:44:18.072Z,4.72
2022-11-18T09:47:18.237Z,4.57
2022-11-18T09:49:46.223Z,5.28
2022-11-18T09:52:24.250Z,4.47
2022-11-18T09:54:51.695Z,4.30
2022-11-18T09:57:25.913Z,4.72
2022-11-18T09:59:53.702Z,4.72
2022-11-18T10:02:28.680Z,4.47
2022-11-18T10:05:01.235Z,4.10
2022-11-18T10:07:48.172Z,5.05
2022-11-18T10:10:22.601Z,3.95
2022-11-18T10:12:58.918Z,4.10
2022-11-18T10:16:06.635Z,3.80
2022-11-18T10:19:03.823Z,4.68
2022-11-18T10:21:41.686Z,3.78
2022-11-18T10:24:17.174Z,3.92
2022-11-18T10:26:45.087Z,4.20
2022-11-18T10:29:12.389Z,3.88
2022-11-18T10:31:52.402Z,3.70
2022-11-18T10:34:20.360Z,3.22
2022-11-18T10:37:00.106Z,3.50
2022-11-18T10:39:27.398Z,3.22
2022-11-18T10:42:00.593Z,3.70
2022-11-18T10:44:31.300Z,3.60
2022-11-18T10:47:27.558Z,3.70
2022-11-18T10:49:57.936Z,3.22
2022-11-18T10:52:25.427Z,3.30
2022-11-18T10:55:22.926Z,3.45
2022-11-18T10:57:54.621Z,3.22
2022-11-18T11:00:42.242Z,3.17
2022-11-18T11:03:21.204Z,3.92
2022-11-18T11:06:09.468Z,3.45
2022-11-18T11:08:49.129Z,3.13
2022-11-18T11:11:30.026Z,3.75
2022-11-18T11:14:14.364Z,3.35
2022-11-18T11:17:12.035Z,3.28
2022-11-18T11:19:49.859Z,3.47
2022-11-18T11:22:18.942Z,3.60
2022-11-18T11:24:46.449Z,3.47
2022-11-18T11:30:19.482Z,3.38
2022-11-18T11:33:15.862Z,3.28
2022-11-18T11:35:49.678Z,3.65
2022-11-18T11:41:09.381Z,3.70
2022-11-18T11:43:54.983Z,3.90
2022-11-18T11:46:46.003Z,2.70
2022-11-18T11:49:49.701Z,3.65
2022-11-18T11:52:45.391Z,3.70
2022-11-18T11:55:26.717Z,3.80
2022-11-18T11:58:08.874Z,3.28
2022-11-18T12:00:42.110Z,3.75
2022-11-18T12:03:39.410Z,3.88
2022-11-18T12:06:09.967Z,3.35
2022-11-18T12:08:39.555Z,3.80
2022-11-18T12:11:11.452Z,4.32
2022-11-18T12:14:01.075Z,4.32
2022-11-18T12:16:40.401Z,3.85
2022-11-18T12:19:20.270Z,3.63
2022-11-18T12:21:49.079Z,3.70
2022-11-18T12:24:44.025Z,3.88
2022-11-18T12:27:27.605Z,4.43
2022-11-18T12:29:59.756Z,4.82
2022-11-18T12:32:42.316Z,3.65
2022-11-18T12:35:12.107Z,3.75
2022-11-18T12:37:59.086Z,4.32
2022-11-18T12:40:47.231Z,4.40
2022-11-18T12:43:48.270Z,4.20
2022-11-18T12:46:44.441Z,3.72
2022-11-18T12:49:21.948Z,4.70
2022-11-18T12:51:55.927Z,3.92
2022-11-18T12:54:30.056Z,4.40
2022-11-18T12:57:01.842Z,3.92
2022-11-18T12:59:37.062Z,3.97
2022-11-18T13:02:11.952Z,3.63
2022-11-18T13:04:45.102Z,4.10
2022-11-18T13:07:34.212Z,3.92
2022-11-18T13:10:11.760Z,4.63
2022-11-18T13:12:39.943Z,4.78
2022-11-18T13:15:30.614Z,4.05
2022-11-18T13:18:27.305Z,4.18
2022-11-18T13:20:57.576Z,4.07
2022-11-18T13:23:45.569Z,3.63
2022-11-18T13:26:33.979Z,4.88
2022-11-18T13:29:28.896Z,4.40
2022-11-18T13:32:08.205Z,3.55
2022-11-18T13:34:46.053Z,4.93
2022-11-18T13:37:22.259Z,4.80
2022-11-18T13:39:50.362Z,4.47
2022-11-18T13:42:31.466Z,4.82
2022-11-18T13:45:02.855Z,4.93
2022-11-18T13:47:43.913Z,5.50
2022-11-18T13:50:10.876Z,5.20
2022-11-18T13:52:59.142Z,5.47
2022-11-18T13:55:34.237Z,4.97
2022-11-18T13:58:02.867Z,5.97
2022-11-18T14:00:32.927Z,5.30
2022-11-18T14:03:05.331Z,6.15
2022-11-18T14:05:35.139Z,6.85
2022-11-18T14:08:06.255Z,6.22
2022-11-18T14:10:44.555Z,5.53
2022-11-18T14:13:31.652Z,5.05
2022-11-18T14:16:01.624Z,5.63
2022-11-18T14:18:34.351Z,5.25
2022-11-18T14:21:04.426Z,5.30
2022-11-18T14:23:36.333Z,5.72
2022-11-18T14:26:06.140Z,5.85
2022-11-18T14:28:37.903Z,6.15
2022-11-18T14:31:05.007Z,5.00
2022-11-18T14:33:36.216Z,5.82
2022-11-18T14:36:15.450Z,5.72
2022-11-18T14:39:19.290Z,5.90
2022-11-18T14:41:49.539Z,5.25
2022-11-18T14:44:19.551Z,6.25
2022-11-18T14:46:53.352Z,6.13
2022-11-18T14:51:51.738Z,8.35
2022-11-18T14:54:25.914Z,9.98
2022-11-18T14:56:57.068Z,7.68
2022-11-18T14:59:24.443Z,7.05
2022-11-18T15:01:52.190Z,6.30
2022-11-18T15:04:21.869Z,6.97
2022-11-18T15:06:49.867Z,7.15
2022-11-18T15:09:18.434Z,8.38
2022-11-18T15:11:45.515Z,9.93
2022-11-18T15:14:12.566Z,10.05
2022-11-18T15:16:39.731Z,8.73
2022-11-18T15:19:13.715Z,7.57
2022-11-18T15:21:40.884Z,9.98
2022-11-18T15:24:07.913Z,12.73
2022-11-18T15:26:38.260Z,12.35
2022-11-18T15:29:05.509Z,12.98
2022-11-18T15:31:32.697Z,14.15
2022-11-18T15:34:05.117Z,14.13
2022-11-18T15:36:33.744Z,12.80
2022-11-18T15:39:00.745Z,11.57
2022-11-18T15:41:29.916Z,10.40
2022-11-18T15:43:59.485Z,9.10
2022-11-18T15:46:28.120Z,9.20
2022-11-18T15:48:56.506Z,8.73
2022-11-18T15:51:26.042Z,8.00
2022-11-18T15:53:53.606Z,7.72
2022-11-18T15:56:21.015Z,9.20
2022-11-18T15:58:57.215Z,11.55
2022-11-18T16:01:27.017Z,11.45
2022-11-18T16:03:54.264Z,11.50
2022-11-18T16:06:21.886Z,11.57
2022-11-18T16:08:52.176Z,13.60
2022-11-18T16:11:41.288Z,12.95
2022-11-18T16:14:10.796Z,13.70
2022-11-18T16:16:39.856Z,13.32
2022-11-18T16:19:09.093Z,15.02
2022-11-18T16:21:39.030Z,13.07
2022-11-18T16:24:08.966Z,10.95
2022-11-18T16:26:39.518Z,10.68
2022-11-18T16:29:07.292Z,10.07
2022-11-18T16:31:40.616Z,10.07
2022-11-18T16:34:10.700Z,11.13
2022-11-18T16:36:44.927Z,12.63
2022-11-18T16:39:18.538Z,19.02
2022-11-18T16:41:48.494Z,19.98
2022-11-18T16:44:16.502Z,19.33
2022-11-18T16:46:49.542Z,18.77
2022-11-18T16:49:19.945Z,18.83
2022-11-18T16:51:50.751Z,17.45
2022-11-18T16:54:21.115Z,19.05
2022-11-18T16:56:50.668Z,19.33
2022-11-18T16:59:23.133Z,20.20
2022-11-18T17:01:51.788Z,20.55
2022-11-18T17:04:24.351Z,20.02
2022-11-18T17:06:52.392Z,17.48
2022-11-18T17:09:22.688Z,18.48
2022-11-18T17:11:51.853Z,14.57
2022-11-18T17:14:19.884Z,16.65
2022-11-18T17:16:48.332Z,17.00
2022-11-18T17:19:21.686Z,14.75
2022-11-18T17:21:52.614Z,12.45
2022-11-18T17:24:27.047Z,15.52
2022-11-18T17:26:54.571Z,15.95
2022-11-18T17:29:21.931Z,13.48
2022-11-18T17:31:51.367Z,14.70
2022-11-18T17:34:20.285Z,13.20
2022-11-18T17:36:48.441Z,12.35
2022-11-18T17:39:18.286Z,13.68
2022-11-18T17:42:03.954Z,14.20
2022-11-18T17:44:31.102Z,12.85
2022-11-18T17:46:58.122Z,12.35
2022-11-18T17:49:25.231Z,13.40
2022-11-18T17:51:52.390Z,15.35
2022-11-18T17:54:20.848Z,15.48
2022-11-18T17:56:52.135Z,16.52
2022-11-18T17:59:20.046Z,14.93
2022-11-18T18:01:47.487Z,15.60
2022-11-18T18:04:20.248Z,15.27
2022-11-18T18:06:51.602Z,14.10
2022-11-18T18:09:30.163Z,15.55
2022-11-18T18:11:58.756Z,19.17
2022-11-18T18:14:25.738Z,16.88
2022-11-18T18:16:52.787Z,17.25
2022-11-18T18:19:21.712Z,13.10
2022-11-18T18:21:49.467Z,12.57
2022-11-18T18:24:19.379Z,12.32
2022-11-18T18:26:47.603Z,13.00
2022-11-18T18:29:14.925Z,13.27
2022-11-18T18:31:42.020Z,13.10
2022-11-18T18:34:09.396Z,11.25
2022-11-18T18:36:36.533Z,11.45
2022-11-18T18:39:04.007Z,12.13
2022-11-18T18:41:32.306Z,12.90
2022-11-18T18:44:00.363Z,11.80
2022-11-18T18:46:28.572Z,12.93
2022-11-18T18:49:07.213Z,11.65
2022-11-18T18:51:42.849Z,12.60
2022-11-18T18:54:12.197Z,12.88
2022-11-18T18:56:39.338Z,12.57
2022-11-18T18:59:07.194Z,14.38
2022-11-18T19:01:34.298Z,12.85
2022-11-18T19:04:04.278Z,13.48
2022-11-18T19:09:21.629Z,17.60
2022-11-18T19:12:07.667Z,23.13
2022-11-18T19:14:35.387Z,15.07
2022-11-18T19:17:09.527Z,15.02
2022-11-18T19:19:55.798Z,16.20
2022-11-18T19:22:23.671Z,16.42
2022-11-18T19:24:51.239Z,15.23
2022-11-18T19:27:19.553Z,15.77
2022-11-18T19:29:46.946Z,15.73
2022-11-18T19:32:15.165Z,16.35
2022-11-18T19:34:42.304Z,17.25
2022-11-18T19:37:09.378Z,15.30
2022-11-18T19:39:38.168Z,15.15
2022-11-18T19:42:05.712Z,16.08
2022-11-18T19:44:32.844Z,16.55
2022-11-18T19:46:59.824Z,16.23
2022-11-18T19:49:26.861Z,16.95
2022-11-18T19:51:53.903Z,15.85
2022-11-18T19:54:20.957Z,16.60
2022-11-18T19:56:49.011Z,16.63
2022-11-18T19:59:16.327Z,16.10
2022-11-18T20:01:43.608Z,16.08
2022-11-18T20:04:10.668Z,16.15
2022-11-18T20:06:37.728Z,15.98
2022-11-18T20:09:08.501Z,15.27
2022-11-18T20:11:36.305Z,15.48
2022-11-18T20:14:03.744Z,15.38
2022-11-18T20:16:31.056Z,15.32
2022-11-18T20:19:04.974Z,14.93
2022-11-18T20:21:34.954Z,14.68
2022-11-18T20:24:03.893Z,15.55
2022-11-18T20:26:35.688Z,14.77
2022-11-18T20:29:03.505Z,14.13
2022-11-18T20:31:30.650Z,13.75
2022-11-18T20:33:57.760Z,15.40
2022-11-18T20:36:31.294Z,15.82
2022-11-18T20:39:02.485Z,15.20
2022-11-18T20:41:31.124Z,15.95
2022-11-18T20:43:58.816Z,16.25
2022-11-18T20:46:26.279Z,15.25
2022-11-18T20:48:53.435Z,16.13
2022-11-18T20:51:26.107Z,16.00
2022-11-18T20:53:54.479Z,14.48
2022-11-18T20:56:24.415Z,14.45
2022-11-18T20:58:52.275Z,15.90
2022-11-18T21:01:25.475Z,13.95
2022-11-18T21:03:54.687Z,13.95
2022-11-18T21:06:27.019Z,14.40
2022-11-18T21:09:02.668Z,14.70
2022-11-18T21:11:29.984Z,14.65
2022-11-18T21:14:21.509Z,14.18
2022-11-18T21:16:51.628Z,14.27
2022-11-18T21:19:19.467Z,13.27
2022-11-18T21:21:51.872Z,15.82
2022-11-18T21:24:24.448Z,13.70
2022-11-18T21:26:54.655Z,14.68
2022-11-18T21:29:23.634Z,16.85
2022-11-18T21:31:51.555Z,14.02
2022-11-18T21:34:19.709Z,14.50
2022-11-18T21:36:51.694Z,14.70
2022-11-18T21:39:22.810Z,17.02
2022-11-18T21:41:55.299Z,16.10
2022-11-18T21:44:23.368Z,14.90
2022-11-18T21:46:50.576Z,13.20
2022-11-18T21:49:18.770Z,12.82
2022-11-18T21:51:46.158Z,14.07
2022-11-18T21:54:15.652Z,13.27
2022-11-18T21:56:43.163Z,14.13
2022-11-18T21:59:10.304Z,13.77
2022-11-18T22:01:37.411Z,13.48
2022-11-18T22:04:05.195Z,13.35
2022-11-18T22:06:34.105Z,13.45
2022-11-18T22:09:02.634Z,14.52
2022-11-18T22:11:30.049Z,14.52
2022-11-18T22:13:57.845Z,14.65
2022-11-18T22:16:25.749Z,15.05
2022-11-18T22:19:01.477Z,16.00
2022-11-18T22:21:30.989Z,15.50
2022-11-18T22:23:59.996Z,14.93
2022-11-18T22:26:28.128Z,16.65
2022-11-18T22:28:56.987Z,15.00
2022-11-18T22:31:26.327Z,16.20
2022-11-18T22:33:54.393Z,16.33
2022-11-18T22:36:23.726Z,15.52
2022-11-18T22:38:50.945Z,16.38
2022-11-18T22:41:38.890Z,17.17
2022-11-18T22:44:08.200Z,15.32
2022-11-18T22:46:37.100Z,18.38
2022-11-18T22:49:05.032Z,16.88
2022-11-18T22:51:32.499Z,16.20
2022-11-18T22:54:30.713Z,15.93
2022-11-18T22:56:49.430Z,16.55
2022-11-18T22:59:17.251Z,15.30
2022-11-18T23:01:44.644Z,17.05
2022-11-18T23:04:11.695Z,16.98
2022-11-18T23:06:38.762Z,15.45
2022-11-18T23:09:05.792Z,16.33
2022-11-18T23:11:51.573Z,15.27
2022-11-18T23:14:19.059Z,16.42
2022-11-18T23:16:46.075Z,16.20
2022-11-18T23:19:17.956Z,15.75
2022-11-18T23:21:45.764Z,15.38
2022-11-18T23:24:14.503Z,13.65
2022-11-18T23:26:42.433Z,14.73
2022-11-18T23:29:11.463Z,15.38
2022-11-18T23:31:42.702Z,15.50
2022-11-18T23:34:14.391Z,13.88
2022-11-18T23:36:41.652Z,14.77
2022-11-18T23:39:09.155Z,14.20
2022-11-18T23:41:36.338Z,13.18
2022-11-18T23:44:04.603Z,14.05
2022-11-18T23:46:32.362Z,13.82
2022-11-18T23:48:59.488Z,14.25
2022-11-18T23:51:26.608Z,13.98
2022-11-18T23:53:55.941Z,14.75
2022-11-18T23:56:26.637Z,13.07
2022-11-18T23:58:55.766Z,14.70
